createdAt,value
2022-11-24T00:00:55.185Z,0
2022-11-24T00:01:55.611Z,0
2022-11-24T00:02:57.230Z,0
2022-11-24T00:03:54.867Z,0
2022-11-24T00:04:55.642Z,0
2022-11-24T00:05:54.839Z,0
2022-11-24T00:06:54.685Z,0
2022-11-24T00:07:55.831Z,0
2022-11-24T00:08:55.410Z,0
2022-11-24T00:09:54.916Z,0
2022-11-24T00:10:55.382Z,0
2022-11-24T00:11:55.355Z,0
2022-11-24T00:12:55.086Z,0
2022-11-24T00:13:55.591Z,0
2022-11-24T00:14:55.328Z,0
2022-11-24T00:15:55.305Z,0
2022-11-24T00:16:55.822Z,0
2022-11-24T00:17:55.543Z,0
2022-11-24T00:18:55.599Z,0
2022-11-24T00:19:54.966Z,0
2022-11-24T00:20:55.222Z,0
2022-11-24T00:21:55.187Z,0
2022-11-24T00:22:55.422Z,0
2022-11-24T00:23:55.342Z,0
2022-11-24T00:24:54.621Z,0
2022-11-24T00:25:55.366Z,0
2022-11-24T00:26:55.098Z,0
2022-11-24T00:27:54.587Z,0
2022-11-24T00:28:55.046Z,0
2022-11-24T00:29:54.897Z,0
2022-11-24T00:30:55.434Z,0
2022-11-24T00:31:54.746Z,0
2022-11-24T00:32:54.993Z,0
2022-11-24T00:33:55.023Z,0
2022-11-24T00:34:55.309Z,0
2022-11-24T00:35:54.944Z,0
2022-11-24T00:36:54.676Z,0
2022-11-24T00:37:54.646Z,0
2022-11-24T00:38:54.883Z,0
2022-11-24T00:39:54.859Z,0
2022-11-24T00:40:54.336Z,0
2022-11-24T00:41:54.841Z,0
2022-11-24T00:42:54.956Z,0
2022-11-24T00:43:55.044Z,0
2022-11-24T00:44:54.011Z,0
2022-11-24T00:45:55.817Z,0
2022-11-24T00:46:55.514Z,0
2022-11-24T00:47:54.459Z,0
2022-11-24T00:48:54.456Z,0
2022-11-24T00:49:54.577Z,0
2022-11-24T00:50:55.026Z,0
2022-11-24T00:51:54.656Z,0
2022-11-24T00:52:54.663Z,0
2022-11-24T00:53:54.632Z,0
2022-11-24T00:54:54.184Z,0
2022-11-24T00:55:54.572Z,0
2022-11-24T00:56:54.564Z,0
2022-11-24T00:57:54.043Z,0
2022-11-24T00:58:54.532Z,0
2022-11-24T00:59:54.247Z,0
2022-11-24T01:00:53.727Z,0
2022-11-24T01:01:55.020Z,0
2022-11-24T01:02:54.378Z,0
2022-11-24T01:03:54.745Z,0
2022-11-24T01:04:54.585Z,0
2022-11-24T01:05:54.431Z,0
2022-11-24T01:06:54.900Z,0
2022-11-24T01:07:54.191Z,0
2022-11-24T01:08:54.799Z,0
2022-11-24T01:09:54.651Z,0
2022-11-24T01:10:53.956Z,0
2022-11-24T01:11:54.451Z,0
2022-11-24T01:12:54.181Z,0
2022-11-24T01:13:54.472Z,0
2022-11-24T01:14:54.252Z,0
2022-11-24T01:15:55.062Z,0
2022-11-24T01:16:54.365Z,0
2022-11-24T01:17:54.091Z,0
2022-11-24T01:18:53.832Z,0
2022-11-24T01:19:54.734Z,0
2022-11-24T01:20:54.287Z,0
2022-11-24T01:21:53.769Z,0
2022-11-24T01:22:54.366Z,0
2022-11-24T01:23:54.507Z,0
2022-11-24T01:24:54.246Z,0
2022-11-24T01:25:54.460Z,0
2022-11-24T01:26:54.199Z,0
2022-11-24T01:27:53.922Z,0
2022-11-24T01:28:56.989Z,0
2022-11-24T01:29:53.638Z,0
2022-11-24T01:30:53.919Z,0
2022-11-24T01:31:53.864Z,0
2022-11-24T01:32:54.094Z,0
2022-11-24T01:33:54.060Z,0
2022-11-24T01:34:54.152Z,0
2022-11-24T01:35:54.038Z,0
2022-11-24T01:37:25.573Z,0
2022-11-24T01:37:53.750Z,0
2022-11-24T01:38:54.338Z,0
2022-11-24T01:39:53.703Z,0
2022-11-24T01:40:53.966Z,0
2022-11-24T01:41:54.191Z,0
2022-11-24T01:42:54.204Z,0
2022-11-24T01:43:53.883Z,0
2022-11-24T01:44:53.788Z,0
2022-11-24T01:45:53.824Z,0
2022-11-24T01:46:53.593Z,0
2022-11-24T01:47:54.102Z,0
2022-11-24T01:48:53.544Z,0
2022-11-24T01:49:53.882Z,0
2022-11-24T01:50:53.792Z,0
2022-11-24T01:51:53.249Z,0
2022-11-24T01:52:53.720Z,0
2022-11-24T01:53:53.448Z,0
2022-11-24T01:54:54.315Z,0
2022-11-24T01:55:54.029Z,0
2022-11-24T01:56:53.420Z,0
2022-11-24T01:57:53.386Z,0
2022-11-24T01:58:53.628Z,0
2022-11-24T01:59:53.915Z,0
2022-11-24T02:00:53.588Z,0
2022-11-24T02:01:54.307Z,0
2022-11-24T02:02:54.325Z,0
2022-11-24T02:03:53.859Z,0
2022-11-24T02:04:54.257Z,0
2022-11-24T02:05:54.578Z,0
2022-11-24T02:06:53.804Z,0
2022-11-24T02:07:54.575Z,0
2022-11-24T02:08:53.503Z,0
2022-11-24T02:09:54.096Z,0
2022-11-24T02:10:54.338Z,0
2022-11-24T02:11:53.980Z,0
2022-11-24T02:12:54.232Z,0
2022-11-24T02:13:53.674Z,0
2022-11-24T02:14:54.067Z,0
2022-11-24T02:15:54.536Z,0
2022-11-24T02:16:54.146Z,0
2022-11-24T02:17:54.119Z,0
2022-11-24T02:18:53.845Z,0
2022-11-24T02:19:54.496Z,0
2022-11-24T02:20:54.091Z,0
2022-11-24T02:21:53.785Z,0
2022-11-24T02:22:53.783Z,0
2022-11-24T02:23:54.012Z,0
2022-11-24T02:24:53.897Z,0
2022-11-24T02:25:53.722Z,0
2022-11-24T02:26:54.312Z,0
2022-11-24T02:28:01.149Z,0
2022-11-24T02:28:54.219Z,0
2022-11-24T02:29:53.995Z,0
2022-11-24T02:30:54.182Z,0
2022-11-24T02:31:54.140Z,0
2022-11-24T02:32:53.602Z,0
2022-11-24T02:33:54.090Z,0
2022-11-24T02:34:53.916Z,0
2022-11-24T02:35:54.067Z,0
2022-11-24T02:36:53.529Z,0
2022-11-24T02:37:53.499Z,0
2022-11-24T02:38:53.237Z,0
2022-11-24T02:39:53.377Z,0
2022-11-24T02:40:53.711Z,0
2022-11-24T02:41:53.946Z,0
2022-11-24T02:42:54.020Z,0
2022-11-24T02:43:53.414Z,0
2022-11-24T02:44:53.259Z,0
2022-11-24T02:45:53.541Z,0
2022-11-24T02:46:53.452Z,0
2022-11-24T02:47:53.341Z,0
2022-11-24T02:48:53.071Z,0
2022-11-24T02:49:53.295Z,0
2022-11-24T02:50:53.530Z,0
2022-11-24T02:51:53.766Z,0
2022-11-24T02:52:53.237Z,0
2022-11-24T02:53:53.478Z,0
2022-11-24T02:54:53.614Z,0
2022-11-24T02:55:53.219Z,0
2022-11-24T02:56:53.682Z,0
2022-11-24T02:57:53.166Z,0
2022-11-24T02:58:53.736Z,0
2022-11-24T02:59:53.117Z,0
2022-11-24T03:00:53.380Z,0
2022-11-24T03:01:53.363Z,0
2022-11-24T03:02:53.940Z,0
2022-11-24T03:03:52.870Z,0
2022-11-24T03:04:53.141Z,0
2022-11-24T03:05:53.023Z,0
2022-11-24T03:06:53.009Z,0
2022-11-24T03:07:53.648Z,0
2022-11-24T03:08:53.205Z,0
2022-11-24T03:09:53.090Z,0
2022-11-24T03:10:52.691Z,0
2022-11-24T03:11:52.895Z,0
2022-11-24T03:12:53.154Z,0
2022-11-24T03:13:52.874Z,0
2022-11-24T03:14:53.420Z,0
2022-11-24T03:15:53.537Z,0
2022-11-24T03:16:53.104Z,0
2022-11-24T03:17:53.304Z,0
2022-11-24T03:18:52.772Z,0
2022-11-24T03:19:53.364Z,0
2022-11-24T03:20:53.271Z,0
2022-11-24T03:21:52.729Z,0
2022-11-24T03:22:52.963Z,0
2022-11-24T03:23:52.953Z,0
2022-11-24T03:24:52.681Z,0
2022-11-24T03:25:52.901Z,0
2022-11-24T03:26:52.891Z,0
2022-11-24T03:27:52.885Z,0
2022-11-24T03:28:52.612Z,0
2022-11-24T03:29:53.087Z,0
2022-11-24T03:30:53.277Z,0
2022-11-24T03:31:52.927Z,0
2022-11-24T03:32:52.579Z,0
2022-11-24T03:50:26.907Z,0
2022-11-24T03:51:26.498Z,0
2022-11-24T03:52:26.216Z,0
2022-11-24T03:53:25.960Z,0
2022-11-24T03:54:26.442Z,0
2022-11-24T03:55:26.156Z,0
2022-11-24T03:56:26.145Z,0
2022-11-24T03:57:26.124Z,0
2022-11-24T03:58:26.624Z,0
2022-11-24T03:59:26.089Z,0
2022-11-24T04:00:26.163Z,0
2022-11-24T04:01:26.874Z,0
2022-11-24T04:02:26.543Z,0
2022-11-24T04:03:26.343Z,0
2022-11-24T04:04:26.349Z,0
2022-11-24T04:05:26.476Z,0
2022-11-24T04:06:26.602Z,0
2022-11-24T04:07:26.449Z,0
2022-11-24T04:08:25.921Z,0
2022-11-24T04:09:26.146Z,0
2022-11-24T04:10:25.878Z,0
2022-11-24T04:11:25.873Z,0
2022-11-24T04:12:25.840Z,0
2022-11-24T04:13:26.331Z,0
2022-11-24T04:14:25.825Z,0
2022-11-24T04:15:26.048Z,0
2022-11-24T04:16:26.037Z,0
2022-11-24T04:17:26.038Z,0
2022-11-24T04:18:26.326Z,0
2022-11-24T04:19:25.715Z,0
2022-11-24T04:20:25.698Z,0
2022-11-24T04:21:25.944Z,0
2022-11-24T04:22:26.299Z,0
2022-11-24T04:23:25.652Z,0
2022-11-24T04:24:25.368Z,0
2022-11-24T04:25:26.290Z,0
2022-11-24T04:26:25.605Z,0
2022-11-24T04:27:25.584Z,0
2022-11-24T04:28:25.808Z,0
2022-11-24T04:29:26.038Z,0
2022-11-24T04:30:26.074Z,0
2022-11-24T04:31:26.094Z,0
2022-11-24T04:32:25.734Z,0
2022-11-24T04:33:26.042Z,0
2022-11-24T04:34:25.192Z,0
2022-11-24T04:35:26.058Z,0
2022-11-24T04:36:26.129Z,0
2022-11-24T04:37:26.613Z,0
2022-11-24T04:39:33.952Z,0
2022-11-24T04:39:43.427Z,0
2022-11-24T04:40:43.439Z,0
2022-11-24T04:41:43.398Z,0
2022-11-24T04:42:43.916Z,0
2022-11-24T04:43:49.495Z,0
2022-11-24T04:44:44.483Z,0
2022-11-24T04:45:43.750Z,0
2022-11-24T04:46:43.245Z,0
2022-11-24T04:47:43.567Z,0
2022-11-24T04:48:43.332Z,0
2022-11-24T04:49:43.520Z,0
2022-11-24T04:50:43.000Z,0
2022-11-24T04:51:43.501Z,0
2022-11-24T04:52:42.951Z,0
2022-11-24T04:53:43.469Z,0
2022-11-24T04:54:43.971Z,0
2022-11-24T04:55:43.818Z,0
2022-11-24T04:56:43.692Z,0
2022-11-24T04:57:43.630Z,0
2022-11-24T04:58:44.636Z,0
2022-11-24T04:59:43.348Z,0
2022-11-24T05:00:43.170Z,0
2022-11-24T05:01:43.102Z,0
2022-11-24T05:02:43.043Z,0
2022-11-24T05:03:43.525Z,0
2022-11-24T05:04:44.416Z,0
2022-11-24T05:05:43.082Z,0
2022-11-24T05:06:42.969Z,0
2022-11-24T05:07:43.763Z,0
2022-11-24T05:08:43.187Z,0
2022-11-24T05:10:08.094Z,0
2022-11-24T05:10:43.003Z,0
2022-11-24T05:11:43.143Z,0
2022-11-24T05:12:45.822Z,0
2022-11-24T05:13:42.835Z,0
2022-11-24T05:14:43.779Z,0
2022-11-24T05:15:43.092Z,0
2022-11-24T05:16:43.421Z,0
2022-11-24T05:17:42.522Z,0
2022-11-24T05:18:43.023Z,0
2022-11-24T05:19:43.139Z,0
2022-11-24T05:20:42.523Z,0
2022-11-24T05:21:42.442Z,0
2022-11-24T05:22:42.700Z,0
2022-11-24T05:23:42.684Z,0
2022-11-24T05:24:43.046Z,0
2022-11-24T05:25:50.045Z,0
2022-11-24T05:26:42.539Z,0
2022-11-24T05:27:42.602Z,0
2022-11-24T05:28:42.855Z,0
2022-11-24T05:32:10.037Z,0
2022-11-24T05:32:39.845Z,0
2022-11-24T05:33:40.620Z,0
2022-11-24T05:34:41.360Z,0
2022-11-24T05:35:40.022Z,0
2022-11-24T05:36:40.278Z,0
2022-11-24T05:37:40.245Z,0
2022-11-24T05:38:39.975Z,0
2022-11-24T05:39:39.976Z,0
2022-11-24T05:40:39.944Z,0
2022-11-24T05:41:40.575Z,0
2022-11-24T05:42:47.514Z,0
2022-11-24T05:43:40.147Z,0
2022-11-24T05:44:40.646Z,0
2022-11-24T05:45:40.110Z,0
2022-11-24T05:46:40.409Z,0
2022-11-24T05:47:40.189Z,0
2022-11-24T05:48:39.851Z,0
2022-11-24T05:49:40.306Z,0
2022-11-24T05:50:39.791Z,0
2022-11-24T05:51:39.753Z,0
2022-11-24T05:52:39.755Z,0
2022-11-24T05:53:39.477Z,0
2022-11-24T05:54:40.695Z,0
2022-11-24T05:55:39.430Z,0
2022-11-24T05:56:40.181Z,0
2022-11-24T05:57:40.310Z,0
2022-11-24T05:58:39.903Z,0
2022-11-24T05:59:39.367Z,0
2022-11-24T06:00:40.142Z,0
2022-11-24T06:01:40.217Z,0
2022-11-24T06:02:40.604Z,0
2022-11-24T06:03:39.308Z,0
2022-11-24T06:04:40.674Z,0
2022-11-24T06:05:39.574Z,0
2022-11-24T06:06:39.752Z,0
2022-11-24T06:07:40.018Z,0
2022-11-24T06:08:40.661Z,0
2022-11-24T06:09:39.451Z,0
2022-11-24T06:10:39.563Z,0
2022-11-24T06:11:39.689Z,0
2022-11-24T06:12:39.661Z,0
2022-11-24T06:13:41.135Z,0
2022-11-24T06:14:40.271Z,0
2022-11-24T06:15:39.610Z,0
2022-11-24T06:16:40.037Z,0
2022-11-24T06:17:39.068Z,0
2022-11-24T06:18:39.305Z,0
2022-11-24T06:19:46.239Z,0
2022-11-24T06:20:49.083Z,0
2022-11-24T06:21:39.763Z,0
2022-11-24T06:22:39.489Z,0
2022-11-24T06:23:39.479Z,0
2022-11-24T06:24:40.458Z,0
2022-11-24T06:25:39.448Z,0
2022-11-24T06:26:38.944Z,0
2022-11-24T06:27:38.904Z,0
2022-11-24T06:28:39.132Z,0
2022-11-24T06:29:39.933Z,0
2022-11-24T06:30:39.624Z,0
2022-11-24T06:31:39.455Z,0
2022-11-24T06:32:40.199Z,0
2022-11-24T06:33:39.318Z,0
2022-11-24T06:34:40.521Z,0
2022-11-24T06:35:38.768Z,0
2022-11-24T06:36:39.258Z,0
2022-11-24T06:37:39.260Z,0
2022-11-24T06:38:38.719Z,0
2022-11-24T06:39:38.963Z,0
2022-11-24T06:40:38.941Z,0
2022-11-24T06:41:38.671Z,5
2022-11-24T06:42:39.415Z,5
2022-11-24T06:43:38.377Z,5
2022-11-24T06:44:40.272Z,5
2022-11-24T06:45:39.901Z,5
2022-11-24T06:46:38.865Z,5
2022-11-24T06:47:39.092Z,5
2022-11-24T06:48:39.085Z,5
2022-11-24T06:49:39.062Z,5
2022-11-24T06:50:42.558Z,5
2022-11-24T06:51:38.746Z,5
2022-11-24T06:52:39.251Z,10
2022-11-24T06:53:38.753Z,10
2022-11-24T06:54:39.990Z,10
2022-11-24T06:55:38.942Z,10
2022-11-24T06:56:38.425Z,10
2022-11-24T06:57:39.174Z,10
2022-11-24T06:58:38.132Z,10
2022-11-24T06:59:38.400Z,10
2022-11-24T07:00:38.793Z,10
2022-11-24T07:01:39.628Z,10
2022-11-24T07:02:45.991Z,10
2022-11-24T07:03:39.143Z,10
2022-11-24T07:04:39.864Z,15
2022-11-24T07:05:38.523Z,10
2022-11-24T07:06:38.768Z,10
2022-11-24T07:07:38.772Z,15
2022-11-24T07:08:38.969Z,15
2022-11-24T07:09:38.213Z,15
2022-11-24T07:10:39.125Z,15
2022-11-24T07:11:38.438Z,15
2022-11-24T07:12:38.662Z,15
2022-11-24T07:13:38.642Z,15
2022-11-24T07:14:39.915Z,15
2022-11-24T07:15:38.599Z,15
2022-11-24T07:16:39.342Z,15
2022-11-24T07:17:38.971Z,15
2022-11-24T07:18:38.564Z,15
2022-11-24T07:19:38.543Z,15
2022-11-24T07:20:38.353Z,15
2022-11-24T07:21:38.296Z,15
2022-11-24T07:22:38.485Z,15
2022-11-24T07:23:38.211Z,15
2022-11-24T07:24:39.458Z,15
2022-11-24T07:25:38.193Z,15
2022-11-24T07:26:38.188Z,15
2022-11-24T07:27:37.901Z,10
2022-11-24T07:28:38.680Z,10
2022-11-24T07:29:38.387Z,10
2022-11-24T07:30:38.037Z,10
2022-11-24T07:31:39.140Z,10
2022-11-24T07:32:38.590Z,10
2022-11-24T07:33:38.724Z,15
2022-11-24T07:34:38.845Z,15
2022-11-24T07:35:38.019Z,10
2022-11-24T07:36:38.515Z,10
2022-11-24T07:37:41.250Z,10
2022-11-24T07:38:38.263Z,10
2022-11-24T07:39:37.962Z,10
2022-11-24T07:40:38.197Z,10
2022-11-24T07:41:38.438Z,10
2022-11-24T07:42:38.213Z,10
2022-11-24T07:43:38.141Z,15
2022-11-24T07:44:38.631Z,15
2022-11-24T07:45:38.724Z,20
2022-11-24T07:46:38.398Z,20
2022-11-24T07:47:38.124Z,20
2022-11-24T07:48:38.337Z,20
2022-11-24T07:49:38.474Z,20
2022-11-24T07:50:38.033Z,20
2022-11-24T07:51:37.762Z,20
2022-11-24T07:52:37.773Z,20
2022-11-24T07:53:38.019Z,20
2022-11-24T07:54:38.946Z,20
2022-11-24T07:55:37.945Z,25
2022-11-24T07:56:37.929Z,25
2022-11-24T07:57:37.676Z,30
2022-11-24T07:58:42.183Z,30
2022-11-24T07:59:38.134Z,25
2022-11-24T08:00:37.636Z,25
2022-11-24T08:01:37.969Z,25
2022-11-24T08:02:37.583Z,25
2022-11-24T08:03:38.052Z,25
2022-11-24T08:04:38.934Z,30
2022-11-24T08:06:08.200Z,40
2022-11-24T08:06:52.202Z,50
2022-11-24T08:07:37.694Z,60
2022-11-24T08:08:37.521Z,55
2022-11-24T08:09:37.237Z,60
2022-11-24T08:10:37.450Z,60
2022-11-24T08:11:37.705Z,65
2022-11-24T08:12:37.681Z,60
2022-11-24T08:13:37.932Z,60
2022-11-24T08:14:38.766Z,60
2022-11-24T08:15:37.902Z,60
2022-11-24T08:16:38.088Z,60
2022-11-24T08:17:37.086Z,60
2022-11-24T08:18:37.837Z,55
2022-11-24T08:19:37.823Z,45
2022-11-24T08:20:37.543Z,40
2022-11-24T08:21:37.931Z,35
2022-11-24T08:22:37.531Z,35
2022-11-24T08:23:37.243Z,35
2022-11-24T08:24:38.015Z,30
2022-11-24T08:25:37.207Z,30
2022-11-24T08:26:37.191Z,30
2022-11-24T08:27:37.447Z,35
2022-11-24T08:28:37.172Z,40
2022-11-24T08:29:37.667Z,45
2022-11-24T08:30:37.160Z,45
2022-11-24T08:31:38.823Z,50
2022-11-24T08:32:37.666Z,55
2022-11-24T08:33:37.083Z,60
2022-11-24T08:34:38.131Z,65
2022-11-24T08:35:37.564Z,70
2022-11-24T08:36:37.561Z,70
2022-11-24T08:37:37.670Z,85
2022-11-24T08:38:37.263Z,85
2022-11-24T08:39:37.260Z,90
2022-11-24T08:40:36.969Z,65
2022-11-24T08:41:37.542Z,70
2022-11-24T08:42:37.452Z,75
2022-11-24T08:43:36.683Z,80
2022-11-24T08:44:38.130Z,75
2022-11-24T08:45:47.394Z,75
2022-11-24T08:46:37.370Z,90
2022-11-24T08:47:37.153Z,90
2022-11-24T08:48:36.992Z,105
2022-11-24T08:49:36.888Z,110
2022-11-24T08:50:36.867Z,115
2022-11-24T08:51:36.846Z,115
2022-11-24T08:52:37.288Z,110
2022-11-24T08:53:37.718Z,110
2022-11-24T08:54:37.588Z,110
2022-11-24T08:55:37.035Z,110
2022-11-24T08:56:36.483Z,110
2022-11-24T08:57:36.710Z,110
2022-11-24T08:58:37.289Z,115
2022-11-24T08:59:37.331Z,120
2022-11-24T09:00:36.923Z,120
2022-11-24T09:01:37.530Z,120
2022-11-24T09:02:36.897Z,120
2022-11-24T09:03:37.038Z,120
2022-11-24T09:04:38.335Z,115
2022-11-24T09:06:06.872Z,110
2022-11-24T09:06:36.811Z,110
2022-11-24T09:07:36.854Z,100
2022-11-24T09:08:36.934Z,95
2022-11-24T09:09:37.169Z,90
2022-11-24T09:10:37.037Z,85
2022-11-24T09:11:36.530Z,85
2022-11-24T09:12:36.994Z,85
2022-11-24T09:13:36.858Z,80
2022-11-24T09:14:38.447Z,85
2022-11-24T09:15:37.939Z,80
2022-11-24T09:16:37.498Z,80
2022-11-24T09:17:37.400Z,75
2022-11-24T09:18:39.833Z,75
2022-11-24T09:19:38.412Z,75
2022-11-24T09:20:38.028Z,80
2022-11-24T09:21:37.142Z,80
2022-11-24T09:22:37.316Z,85
2022-11-24T09:23:37.589Z,95
2022-11-24T09:24:37.564Z,100
2022-11-24T09:25:37.950Z,105
2022-11-24T09:26:37.263Z,110
2022-11-24T09:27:37.514Z,115
2022-11-24T09:28:37.226Z,120
2022-11-24T09:29:38.228Z,120
2022-11-24T09:30:37.778Z,120
2022-11-24T09:31:37.821Z,120
2022-11-24T09:32:37.552Z,120
2022-11-24T09:33:37.649Z,120
2022-11-24T09:34:36.893Z,115
2022-11-24T09:35:37.149Z,110
2022-11-24T09:36:37.109Z,110
2022-11-24T09:37:41.855Z,105
2022-11-24T09:38:37.071Z,110
2022-11-24T09:39:38.381Z,120
2022-11-24T09:40:37.055Z,120
2022-11-24T09:41:37.814Z,125
2022-11-24T09:42:37.233Z,120
2022-11-24T09:43:37.011Z,120
2022-11-24T09:44:37.261Z,115
2022-11-24T09:46:14.502Z,115
2022-11-24T09:46:37.602Z,115
2022-11-24T09:47:37.123Z,110
2022-11-24T09:48:37.193Z,100
2022-11-24T09:49:37.937Z,105
2022-11-24T09:50:36.894Z,110
2022-11-24T09:51:37.395Z,120
2022-11-24T09:52:36.677Z,115
2022-11-24T09:53:37.105Z,110
2022-11-24T09:54:37.089Z,105
2022-11-24T09:55:37.345Z,110
2022-11-24T09:56:37.087Z,110
2022-11-24T09:57:44.747Z,105
2022-11-24T09:58:36.533Z,105
2022-11-24T09:59:38.069Z,115
2022-11-24T10:00:36.772Z,115
2022-11-24T10:01:37.182Z,105
2022-11-24T10:02:36.712Z,135
2022-11-24T10:03:36.969Z,145
2022-11-24T10:04:36.989Z,130
2022-11-24T10:05:37.200Z,120
2022-11-24T10:06:36.920Z,110
2022-11-24T10:07:37.160Z,95
2022-11-24T10:08:36.652Z,95
2022-11-24T10:09:38.307Z,100
2022-11-24T10:10:36.947Z,100
2022-11-24T10:11:36.910Z,110
2022-11-24T10:12:37.099Z,115
2022-11-24T10:13:37.220Z,110
2022-11-24T10:14:36.828Z,120
2022-11-24T10:15:36.823Z,130
2022-11-24T10:16:37.310Z,135
2022-11-24T10:17:36.773Z,120
2022-11-24T10:18:36.485Z,110
2022-11-24T10:19:46.976Z,115
2022-11-24T10:20:36.467Z,120
2022-11-24T10:21:36.773Z,110
2022-11-24T10:22:36.998Z,120
2022-11-24T10:23:42.549Z,125
2022-11-24T10:24:36.679Z,135
2022-11-24T10:25:36.914Z,140
2022-11-24T10:26:36.884Z,130
2022-11-24T10:27:36.116Z,155
2022-11-24T10:28:36.369Z,175
2022-11-24T10:29:37.884Z,190
2022-11-24T10:30:36.420Z,140
2022-11-24T10:31:36.832Z,135
2022-11-24T10:32:36.059Z,130
2022-11-24T10:33:39.801Z,120
2022-11-24T10:34:36.773Z,120
2022-11-24T10:35:36.507Z,120
2022-11-24T10:36:36.503Z,105
2022-11-24T10:37:36.511Z,100
2022-11-24T10:38:36.466Z,90
2022-11-24T10:39:37.376Z,95
2022-11-24T10:41:05.414Z,90
2022-11-24T10:41:36.198Z,95
2022-11-24T10:42:36.157Z,105
2022-11-24T10:43:36.670Z,90
2022-11-24T10:44:35.880Z,85
2022-11-24T10:45:36.752Z,80
2022-11-24T10:46:44.563Z,65
2022-11-24T10:47:36.093Z,65
2022-11-24T10:48:36.329Z,65
2022-11-24T10:49:37.353Z,80
2022-11-24T10:50:36.304Z,105
2022-11-24T10:51:36.190Z,115
2022-11-24T10:52:36.276Z,110
2022-11-24T10:53:36.007Z,95
2022-11-24T10:54:36.007Z,85
2022-11-24T10:55:36.224Z,80
2022-11-24T10:56:35.714Z,80
2022-11-24T10:57:36.459Z,80
2022-11-24T10:58:43.239Z,70
2022-11-24T10:59:36.600Z,65
2022-11-24T11:00:35.903Z,50
2022-11-24T11:01:37.170Z,55
2022-11-24T11:02:36.482Z,65
2022-11-24T11:03:35.850Z,70
2022-11-24T11:04:36.115Z,60
2022-11-24T11:05:36.382Z,55
2022-11-24T11:06:36.073Z,65
2022-11-24T11:07:36.187Z,85
2022-11-24T11:08:35.824Z,95
2022-11-24T11:09:36.647Z,110
2022-11-24T11:10:36.028Z,110
2022-11-24T11:11:36.022Z,110
2022-11-24T11:13:05.992Z,105
2022-11-24T11:13:35.708Z,105
2022-11-24T11:14:36.232Z,100
2022-11-24T11:15:36.796Z,100
2022-11-24T11:16:36.112Z,100
2022-11-24T11:17:36.308Z,95
2022-11-24T11:18:35.966Z,90
2022-11-24T11:20:07.302Z,85
2022-11-24T11:20:35.620Z,80
2022-11-24T11:21:35.870Z,80
2022-11-24T11:22:35.610Z,80
2022-11-24T11:23:35.836Z,80
2022-11-24T11:24:35.311Z,85
2022-11-24T11:25:35.553Z,90
2022-11-24T11:26:36.034Z,90
2022-11-24T11:27:35.513Z,90
2022-11-24T11:28:35.514Z,95
2022-11-24T11:31:23.111Z,125
2022-11-24T11:31:33.768Z,125
2022-11-24T11:34:10.589Z,135
2022-11-24T11:34:37.430Z,130
2022-11-24T11:35:22.129Z,130
2022-11-24T11:36:21.881Z,135
2022-11-24T11:37:21.335Z,140
2022-11-24T11:38:21.572Z,135
2022-11-24T11:39:21.564Z,130
2022-11-24T11:40:22.312Z,125
2022-11-24T11:41:22.023Z,125
2022-11-24T11:43:10.475Z,120
2022-11-24T11:44:21.592Z,115
2022-11-24T11:45:21.967Z,120
2022-11-24T11:46:23.080Z,115
2022-11-24T11:47:21.384Z,110
2022-11-24T11:48:21.465Z,95
2022-11-24T11:49:22.096Z,85
2022-11-24T11:50:22.278Z,90
2022-11-24T11:51:33.189Z,100
2022-11-24T11:52:22.214Z,115
2022-11-24T11:53:22.206Z,135
2022-11-24T11:54:22.746Z,155
2022-11-24T11:55:21.669Z,160
2022-11-24T11:56:21.661Z,160
2022-11-24T11:57:21.635Z,165
2022-11-24T11:58:21.871Z,165
2022-11-24T11:59:21.987Z,165
2022-11-24T12:00:22.251Z,170
2022-11-24T12:01:21.578Z,160
2022-11-24T12:02:22.189Z,150
2022-11-24T12:03:22.286Z,145
2022-11-24T12:04:22.449Z,135
2022-11-24T12:05:22.188Z,130
2022-11-24T12:06:22.059Z,130
2022-11-24T12:07:22.145Z,140
2022-11-24T12:08:28.914Z,150
2022-11-24T12:09:30.231Z,155
2022-11-24T12:10:21.929Z,155
2022-11-24T12:11:22.659Z,155
2022-11-24T12:12:22.134Z,160
2022-11-24T12:13:22.364Z,155
2022-11-24T12:14:22.397Z,150
2022-11-24T12:15:22.356Z,150
2022-11-24T12:16:22.465Z,155
2022-11-24T12:17:21.805Z,150
2022-11-24T12:19:04.697Z,150
2022-11-24T12:19:22.039Z,150
2022-11-24T12:20:22.337Z,145
2022-11-24T12:21:29.614Z,145
2022-11-24T12:22:22.264Z,140
2022-11-24T12:23:21.988Z,140
2022-11-24T12:24:22.635Z,135
2022-11-24T12:25:21.940Z,130
2022-11-24T12:26:22.437Z,125
2022-11-24T12:27:30.073Z,120
2022-11-24T12:28:21.679Z,115
2022-11-24T12:29:22.427Z,120
2022-11-24T12:30:22.324Z,115
2022-11-24T12:31:22.251Z,115
2022-11-24T12:32:22.436Z,110
2022-11-24T12:33:22.116Z,105
2022-11-24T12:34:22.361Z,105
2022-11-24T12:35:22.116Z,100
2022-11-24T12:36:21.850Z,100
2022-11-24T12:37:22.203Z,100
2022-11-24T12:38:22.069Z,100
2022-11-24T12:39:21.879Z,100
2022-11-24T12:40:21.805Z,105
2022-11-24T12:41:49.679Z,105
2022-11-24T12:42:22.000Z,105
2022-11-24T12:43:21.740Z,100
2022-11-24T12:44:21.986Z,95
2022-11-24T12:45:22.261Z,90
2022-11-24T12:46:27.035Z,90
2022-11-24T12:47:22.201Z,90
2022-11-24T12:48:22.188Z,85
2022-11-24T12:49:21.902Z,85
2022-11-24T12:50:21.904Z,85
2022-11-24T12:51:21.623Z,80
2022-11-24T12:52:22.176Z,80
2022-11-24T12:53:22.197Z,80
2022-11-24T12:54:22.114Z,75
2022-11-24T12:55:21.833Z,75
2022-11-24T12:56:21.557Z,70
2022-11-24T12:57:22.135Z,70
2022-11-24T12:58:21.790Z,70
2022-11-24T12:59:22.019Z,75
2022-11-24T13:00:21.255Z,70
2022-11-24T13:01:26.424Z,65
2022-11-24T13:02:22.589Z,60
2022-11-24T13:03:22.016Z,55
2022-11-24T13:04:21.458Z,55
2022-11-24T13:05:21.739Z,60
2022-11-24T13:06:21.661Z,60
2022-11-24T13:07:21.714Z,65
2022-11-24T13:08:21.934Z,70
2022-11-24T13:09:21.723Z,70
2022-11-24T13:10:34.859Z,70
2022-11-24T13:24:24.896Z,80
2022-11-24T13:25:23.086Z,80
2022-11-24T13:26:22.833Z,80
2022-11-24T13:27:23.417Z,85
2022-11-24T13:29:18.170Z,90
2022-11-24T13:29:34.926Z,85
2022-11-24T13:30:33.485Z,85
2022-11-24T13:31:34.255Z,80
2022-11-24T13:32:33.918Z,75
2022-11-24T13:33:36.256Z,75
2022-11-24T13:34:34.343Z,75
2022-11-24T13:35:33.900Z,75
2022-11-24T13:36:33.882Z,75
2022-11-24T13:37:44.133Z,70
2022-11-24T13:38:33.581Z,70
2022-11-24T13:39:40.696Z,65
2022-11-24T13:40:33.104Z,65
2022-11-24T13:41:37.844Z,65
2022-11-24T13:42:52.882Z,60
2022-11-24T13:43:33.521Z,60
2022-11-24T13:44:33.958Z,60
2022-11-24T13:45:33.217Z,55
2022-11-24T13:46:34.146Z,55
2022-11-24T13:47:32.982Z,50
2022-11-24T13:48:33.180Z,50
2022-11-24T13:49:33.674Z,55
2022-11-24T13:50:33.147Z,55
2022-11-24T13:51:33.400Z,55
2022-11-24T13:52:34.125Z,55
2022-11-24T13:53:33.612Z,55
2022-11-24T13:54:33.835Z,55
2022-11-24T13:55:33.902Z,55
2022-11-24T13:56:33.848Z,55
2022-11-24T13:57:34.092Z,55
2022-11-24T13:58:34.077Z,55
2022-11-24T13:59:34.040Z,55
2022-11-24T14:00:33.764Z,55
2022-11-24T14:01:34.422Z,55
2022-11-24T14:02:33.437Z,50
2022-11-24T14:03:33.612Z,45
2022-11-24T14:04:41.996Z,45
2022-11-24T14:05:33.722Z,45
2022-11-24T14:06:33.714Z,45
2022-11-24T14:07:34.130Z,40
2022-11-24T14:08:33.393Z,40
2022-11-24T14:09:33.384Z,40
2022-11-24T14:10:33.631Z,40
2022-11-24T14:11:34.690Z,40
2022-11-24T14:12:34.877Z,40
2022-11-24T14:13:34.633Z,45
2022-11-24T14:14:35.237Z,45
2022-11-24T14:15:34.066Z,45
2022-11-24T14:16:34.782Z,45
2022-11-24T14:17:34.283Z,40
2022-11-24T14:18:34.516Z,40
2022-11-24T14:19:40.144Z,35
2022-11-24T14:20:34.484Z,35
2022-11-24T14:21:34.213Z,35
2022-11-24T14:22:34.466Z,35
2022-11-24T14:23:33.935Z,35
2022-11-24T14:24:41.471Z,35
2022-11-24T14:25:34.412Z,30
2022-11-24T14:26:34.124Z,30
2022-11-24T14:27:34.732Z,30
2022-11-24T14:28:34.883Z,30
2022-11-24T14:29:34.379Z,30
2022-11-24T14:30:34.086Z,30
2022-11-24T14:31:34.722Z,25
2022-11-24T14:32:34.568Z,25
2022-11-24T14:33:34.037Z,25
2022-11-24T14:34:35.133Z,25
2022-11-24T14:35:34.569Z,25
2022-11-24T14:36:34.248Z,25
2022-11-24T14:37:33.983Z,25
2022-11-24T14:38:33.695Z,25
2022-11-24T14:39:33.934Z,25
2022-11-24T14:40:33.920Z,25
2022-11-24T14:41:34.012Z,20
2022-11-24T14:42:33.676Z,20
2022-11-24T14:43:34.487Z,20
2022-11-24T14:44:34.986Z,20
2022-11-24T14:45:34.137Z,20
2022-11-24T14:46:34.816Z,20
2022-11-24T14:47:40.213Z,20
2022-11-24T14:48:34.321Z,20
2022-11-24T14:49:34.060Z,20
2022-11-24T14:50:34.229Z,15
2022-11-24T14:51:33.538Z,15
2022-11-24T14:52:33.491Z,15
2022-11-24T14:53:35.422Z,15
2022-11-24T14:54:34.007Z,15
2022-11-24T14:55:33.707Z,15
2022-11-24T14:56:34.007Z,15
2022-11-24T14:57:33.695Z,15
2022-11-24T14:58:36.537Z,15